sensor_id;sensor_type;location;lat;lon;timestamp;temperature;humidity
6666;DHT22;3369;49.906;8.598;2024-03-08T00:00:40;5.90;92.90
6666;DHT22;3369;49.906;8.598;2024-03-08T00:03:08;5.90;92.90
6666;DHT22;3369;49.906;8.598;2024-03-08T00:05:35;5.90;92.90
6666;DHT22;3369;49.906;8.598;2024-03-08T00:08:01;5.80;93.00
6666;DHT22;3369;49.906;8.598;2024-03-08T00:10:27;5.80;93.10
6666;DHT22;3369;49.906;8.598;2024-03-08T00:12:54;5.70;93.40
6666;DHT22;3369;49.906;8.598;2024-03-08T00:15:20;5.70;93.00
6666;DHT22;3369;49.906;8.598;2024-03-08T00:17:46;5.70;93.00
6666;DHT22;3369;49.906;8.598;2024-03-08T00:20:12;5.60;93.00
6666;DHT22;3369;49.906;8.598;2024-03-08T00:22:38;5.60;93.00
6666;DHT22;3369;49.906;8.598;2024-03-08T00:25:05;5.50;93.00
6666;DHT22;3369;49.906;8.598;2024-03-08T00:27:31;5.50;92.90
6666;DHT22;3369;49.906;8.598;2024-03-08T00:29:57;5.50;93.00
6666;DHT22;3369;49.906;8.598;2024-03-08T00:32:23;5.40;93.00
6666;DHT22;3369;49.906;8.598;2024-03-08T00:34:50;5.40;92.90
6666;DHT22;3369;49.906;8.598;2024-03-08T00:37:19;5.40;93.00
6666;DHT22;3369;49.906;8.598;2024-03-08T00:39:45;5.40;92.90
6666;DHT22;3369;49.906;8.598;2024-03-08T00:42:11;5.30;93.00
6666;DHT22;3369;49.906;8.598;2024-03-08T00:44:36;5.30;93.10
6666;DHT22;3369;49.906;8.598;2024-03-08T00:47:03;5.30;93.00
6666;DHT22;3369;49.906;8.598;2024-03-08T00:49:30;5.20;93.00
6666;DHT22;3369;49.906;8.598;2024-03-08T00:51:55;5.20;93.10
6666;DHT22;3369;49.906;8.598;2024-03-08T00:54:21;5.20;93.00
6666;DHT22;3369;49.906;8.598;2024-03-08T00:56:47;5.10;93.10
6666;DHT22;3369;49.906;8.598;2024-03-08T00:59:12;5.10;93.10
6666;DHT22;3369;49.906;8.598;2024-03-08T01:01:40;5.10;93.20
6666;DHT22;3369;49.906;8.598;2024-03-08T01:04:05;5.00;93.20
6666;DHT22;3369;49.906;8.598;2024-03-08T01:06:32;5.00;93.20
6666;DHT22;3369;49.906;8.598;2024-03-08T01:08:58;5.00;93.20
6666;DHT22;3369;49.906;8.598;2024-03-08T01:11:24;4.90;93.20
6666;DHT22;3369;49.906;8.598;2024-03-08T01:13:49;4.90;93.30
6666;DHT22;3369;49.906;8.598;2024-03-08T01:16:15;4.90;93.40
6666;DHT22;3369;49.906;8.598;2024-03-08T01:18:42;4.90;93.40
6666;DHT22;3369;49.906;8.598;2024-03-08T01:21:08;4.80;93.30
6666;DHT22;3369;49.906;8.598;2024-03-08T01:23:33;4.80;93.40
6666;DHT22;3369;49.906;8.598;2024-03-08T01:26:00;4.80;93.40
6666;DHT22;3369;49.906;8.598;2024-03-08T01:28:27;4.70;93.50
6666;DHT22;3369;49.906;8.598;2024-03-08T01:30:53;4.80;93.40
6666;DHT22;3369;49.906;8.598;2024-03-08T01:33:24;4.70;93.50
6666;DHT22;3369;49.906;8.598;2024-03-08T01:35:54;4.70;93.40
6666;DHT22;3369;49.906;8.598;2024-03-08T01:38:20;4.70;93.50
6666;DHT22;3369;49.906;8.598;2024-03-08T01:40:52;4.70;93.50
6666;DHT22;3369;49.906;8.598;2024-03-08T01:43:22;4.60;93.50
6666;DHT22;3369;49.906;8.598;2024-03-08T01:45:48;4.60;93.50
6666;DHT22;3369;49.906;8.598;2024-03-08T01:48:17;4.60;93.50
6666;DHT22;3369;49.906;8.598;2024-03-08T01:50:45;4.60;93.50
6666;DHT22;3369;49.906;8.598;2024-03-08T01:53:11;4.60;93.50
6666;DHT22;3369;49.906;8.598;2024-03-08T01:55:38;4.60;93.60
6666;DHT22;3369;49.906;8.598;2024-03-08T01:58:09;4.50;93.60
6666;DHT22;3369;49.906;8.598;2024-03-08T02:00:36;4.50;93.60
6666;DHT22;3369;49.906;8.598;2024-03-08T02:03:05;4.50;93.60
6666;DHT22;3369;49.906;8.598;2024-03-08T02:05:31;4.50;93.70
6666;DHT22;3369;49.906;8.598;2024-03-08T02:07:57;4.50;93.70
6666;DHT22;3369;49.906;8.598;2024-03-08T02:10:23;4.40;93.70
6666;DHT22;3369;49.906;8.598;2024-03-08T02:12:48;4.40;93.80
6666;DHT22;3369;49.906;8.598;2024-03-08T02:15:14;4.40;93.80
6666;DHT22;3369;49.906;8.598;2024-03-08T02:17:40;4.40;93.80
6666;DHT22;3369;49.906;8.598;2024-03-08T02:20:07;4.30;93.80
6666;DHT22;3369;49.906;8.598;2024-03-08T02:22:34;4.30;93.80
6666;DHT22;3369;49.906;8.598;2024-03-08T02:25:00;4.30;94.00
6666;DHT22;3369;49.906;8.598;2024-03-08T02:27:27;4.30;94.10
6666;DHT22;3369;49.906;8.598;2024-03-08T02:29:56;4.20;94.10
6666;DHT22;3369;49.906;8.598;2024-03-08T02:32:25;4.30;94.10
6666;DHT22;3369;49.906;8.598;2024-03-08T02:34:50;4.30;93.90
6666;DHT22;3369;49.906;8.598;2024-03-08T02:37:17;4.30;94.00
6666;DHT22;3369;49.906;8.598;2024-03-08T02:39:43;4.30;93.90
6666;DHT22;3369;49.906;8.598;2024-03-08T02:42:09;4.20;94.00
6666;DHT22;3369;49.906;8.598;2024-03-08T02:44:34;4.20;94.10
6666;DHT22;3369;49.906;8.598;2024-03-08T02:47:00;4.20;94.10
6666;DHT22;3369;49.906;8.598;2024-03-08T02:49:26;4.10;94.20
6666;DHT22;3369;49.906;8.598;2024-03-08T02:51:55;4.10;94.20
6666;DHT22;3369;49.906;8.598;2024-03-08T02:54:22;4.10;94.20
6666;DHT22;3369;49.906;8.598;2024-03-08T02:56:49;4.10;94.30
6666;DHT22;3369;49.906;8.598;2024-03-08T02:59:18;4.10;94.30
6666;DHT22;3369;49.906;8.598;2024-03-08T03:01:44;4.10;94.40
6666;DHT22;3369;49.906;8.598;2024-03-08T03:04:09;4.10;94.40
6666;DHT22;3369;49.906;8.598;2024-03-08T03:06:35;4.00;94.40
6666;DHT22;3369;49.906;8.598;2024-03-08T03:09:01;4.00;94.40
6666;DHT22;3369;49.906;8.598;2024-03-08T03:11:27;4.00;94.50
6666;DHT22;3369;49.906;8.598;2024-03-08T03:13:53;4.00;94.50
6666;DHT22;3369;49.906;8.598;2024-03-08T03:16:19;4.00;94.50
6666;DHT22;3369;49.906;8.598;2024-03-08T03:18:48;4.00;94.60
6666;DHT22;3369;49.906;8.598;2024-03-08T03:21:13;3.90;94.60
6666;DHT22;3369;49.906;8.598;2024-03-08T03:23:40;3.90;94.70
6666;DHT22;3369;49.906;8.598;2024-03-08T03:26:08;3.80;94.70
6666;DHT22;3369;49.906;8.598;2024-03-08T03:28:33;3.80;94.80
6666;DHT22;3369;49.906;8.598;2024-03-08T03:30:59;3.70;94.90
6666;DHT22;3369;49.906;8.598;2024-03-08T03:33:25;3.70;95.00
6666;DHT22;3369;49.906;8.598;2024-03-08T03:35:51;3.70;95.30
6666;DHT22;3369;49.906;8.598;2024-03-08T03:38:19;3.60;95.00
6666;DHT22;3369;49.906;8.598;2024-03-08T03:40:46;3.60;95.10
6666;DHT22;3369;49.906;8.598;2024-03-08T03:43:13;3.60;95.10
6666;DHT22;3369;49.906;8.598;2024-03-08T03:45:39;3.60;95.10
6666;DHT22;3369;49.906;8.598;2024-03-08T03:48:07;3.50;95.10
6666;DHT22;3369;49.906;8.598;2024-03-08T03:50:34;3.50;95.20
6666;DHT22;3369;49.906;8.598;2024-03-08T03:53:00;3.50;95.20
6666;DHT22;3369;49.906;8.598;2024-03-08T03:55:26;3.50;95.20
6666;DHT22;3369;49.906;8.598;2024-03-08T03:57:52;3.40;95.20
6666;DHT22;3369;49.906;8.598;2024-03-08T04:00:18;3.30;95.20
6666;DHT22;3369;49.906;8.598;2024-03-08T04:02:44;3.30;95.30
6666;DHT22;3369;49.906;8.598;2024-03-08T04:05:10;3.30;95.30
6666;DHT22;3369;49.906;8.598;2024-03-08T04:07:39;3.20;95.30
6666;DHT22;3369;49.906;8.598;2024-03-08T04:10:06;3.20;95.40
6666;DHT22;3369;49.906;8.598;2024-03-08T04:12:33;3.20;95.50
6666;DHT22;3369;49.906;8.598;2024-03-08T04:14:58;3.10;95.50
6666;DHT22;3369;49.906;8.598;2024-03-08T04:17:24;3.00;95.50
6666;DHT22;3369;49.906;8.598;2024-03-08T04:19:50;3.00;95.60
6666;DHT22;3369;49.906;8.598;2024-03-08T04:22:16;3.00;95.70
6666;DHT22;3369;49.906;8.598;2024-03-08T04:24:43;2.90;95.70
6666;DHT22;3369;49.906;8.598;2024-03-08T04:27:09;2.90;95.80
6666;DHT22;3369;49.906;8.598;2024-03-08T04:29:34;2.90;95.80
6666;DHT22;3369;49.906;8.598;2024-03-08T04:32:03;2.80;95.90
6666;DHT22;3369;49.906;8.598;2024-03-08T04:34:29;2.80;95.90
6666;DHT22;3369;49.906;8.598;2024-03-08T04:36:57;2.70;95.90
6666;DHT22;3369;49.906;8.598;2024-03-08T04:39:23;2.70;96.00
6666;DHT22;3369;49.906;8.598;2024-03-08T04:41:49;2.70;96.00
6666;DHT22;3369;49.906;8.598;2024-03-08T04:44:17;2.60;96.00
6666;DHT22;3369;49.906;8.598;2024-03-08T04:46:43;2.60;96.10
6666;DHT22;3369;49.906;8.598;2024-03-08T04:49:09;2.60;96.10
6666;DHT22;3369;49.906;8.598;2024-03-08T04:51:37;2.60;96.20
6666;DHT22;3369;49.906;8.598;2024-03-08T04:54:02;2.60;96.20
6666;DHT22;3369;49.906;8.598;2024-03-08T04:56:30;2.60;96.30
6666;DHT22;3369;49.906;8.598;2024-03-08T04:58:55;2.60;96.40
6666;DHT22;3369;49.906;8.598;2024-03-08T05:01:21;2.50;96.40
6666;DHT22;3369;49.906;8.598;2024-03-08T05:03:47;2.50;96.50
6666;DHT22;3369;49.906;8.598;2024-03-08T05:06:15;2.50;96.60
6666;DHT22;3369;49.906;8.598;2024-03-08T05:08:41;2.50;96.60
6666;DHT22;3369;49.906;8.598;2024-03-08T05:11:06;2.30;96.70
6666;DHT22;3369;49.906;8.598;2024-03-08T05:13:32;2.10;96.90
6666;DHT22;3369;49.906;8.598;2024-03-08T05:15:59;2.00;97.00
6666;DHT22;3369;49.906;8.598;2024-03-08T05:18:25;1.90;97.10
6666;DHT22;3369;49.906;8.598;2024-03-08T05:20:52;1.90;97.40
6666;DHT22;3369;49.906;8.598;2024-03-08T05:23:17;2.00;97.50
6666;DHT22;3369;49.906;8.598;2024-03-08T05:25:45;2.00;97.50
6666;DHT22;3369;49.906;8.598;2024-03-08T05:28:12;2.00;97.50
6666;DHT22;3369;49.906;8.598;2024-03-08T05:30:38;2.10;97.60
6666;DHT22;3369;49.906;8.598;2024-03-08T05:33:04;2.00;97.50
6666;DHT22;3369;49.906;8.598;2024-03-08T05:35:30;2.00;97.50
6666;DHT22;3369;49.906;8.598;2024-03-08T05:37:56;2.00;97.60
6666;DHT22;3369;49.906;8.598;2024-03-08T05:40:21;2.00;97.60
6666;DHT22;3369;49.906;8.598;2024-03-08T05:42:47;2.00;97.60
6666;DHT22;3369;49.906;8.598;2024-03-08T05:45:12;2.00;97.60
6666;DHT22;3369;49.906;8.598;2024-03-08T05:47:39;2.00;97.60
6666;DHT22;3369;49.906;8.598;2024-03-08T05:50:06;1.90;97.60
6666;DHT22;3369;49.906;8.598;2024-03-08T05:52:35;1.90;97.70
6666;DHT22;3369;49.906;8.598;2024-03-08T05:55:01;1.90;97.70
6666;DHT22;3369;49.906;8.598;2024-03-08T05:57:28;1.90;97.70
6666;DHT22;3369;49.906;8.598;2024-03-08T05:59:53;1.80;97.70
6666;DHT22;3369;49.906;8.598;2024-03-08T06:02:19;1.80;97.70
6666;DHT22;3369;49.906;8.598;2024-03-08T06:04:48;1.80;97.80
6666;DHT22;3369;49.906;8.598;2024-03-08T06:07:13;1.80;97.80
6666;DHT22;3369;49.906;8.598;2024-03-08T06:09:39;1.80;97.80
6666;DHT22;3369;49.906;8.598;2024-03-08T06:12:05;1.80;97.80
6666;DHT22;3369;49.906;8.598;2024-03-08T06:14:32;1.80;97.80
6666;DHT22;3369;49.906;8.598;2024-03-08T06:16:57;1.80;97.80
6666;DHT22;3369;49.906;8.598;2024-03-08T06:19:23;1.80;97.90
6666;DHT22;3369;49.906;8.598;2024-03-08T06:21:48;1.90;98.00
6666;DHT22;3369;49.906;8.598;2024-03-08T06:24:14;1.80;98.00
6666;DHT22;3369;49.906;8.598;2024-03-08T06:26:40;1.80;98.10
6666;DHT22;3369;49.906;8.598;2024-03-08T06:29:06;1.80;98.20
6666;DHT22;3369;49.906;8.598;2024-03-08T06:31:34;1.80;98.30
6666;DHT22;3369;49.906;8.598;2024-03-08T06:34:00;1.80;98.30
6666;DHT22;3369;49.906;8.598;2024-03-08T06:36:25;1.90;98.40
6666;DHT22;3369;49.906;8.598;2024-03-08T06:38:51;1.90;98.50
6666;DHT22;3369;49.906;8.598;2024-03-08T06:41:17;1.90;98.50
6666;DHT22;3369;49.906;8.598;2024-03-08T06:43:43;1.90;98.60
6666;DHT22;3369;49.906;8.598;2024-03-08T06:46:09;2.00;98.70
6666;DHT22;3369;49.906;8.598;2024-03-08T06:48:38;2.00;98.70
6666;DHT22;3369;49.906;8.598;2024-03-08T06:51:04;2.00;98.80
6666;DHT22;3369;49.906;8.598;2024-03-08T06:53:30;2.10;98.80
6666;DHT22;3369;49.906;8.598;2024-03-08T06:55:57;2.10;98.90
6666;DHT22;3369;49.906;8.598;2024-03-08T06:58:23;2.10;99.20
6666;DHT22;3369;49.906;8.598;2024-03-08T07:00:49;2.20;98.90
6666;DHT22;3369;49.906;8.598;2024-03-08T07:03:18;2.20;99.00
6666;DHT22;3369;49.906;8.598;2024-03-08T07:05:44;2.30;99.00
6666;DHT22;3369;49.906;8.598;2024-03-08T07:08:10;2.30;99.10
6666;DHT22;3369;49.906;8.598;2024-03-08T07:10:35;2.30;99.10
6666;DHT22;3369;49.906;8.598;2024-03-08T07:13:02;2.40;99.10
6666;DHT22;3369;49.906;8.598;2024-03-08T07:15:28;2.50;99.20
6666;DHT22;3369;49.906;8.598;2024-03-08T07:17:54;2.50;99.20
6666;DHT22;3369;49.906;8.598;2024-03-08T07:20:20;2.60;99.20
6666;DHT22;3369;49.906;8.598;2024-03-08T07:22:47;2.60;99.20
6666;DHT22;3369;49.906;8.598;2024-03-08T07:25:13;2.70;99.20
6666;DHT22;3369;49.906;8.598;2024-03-08T07:27:49;2.70;99.10
6666;DHT22;3369;49.906;8.598;2024-03-08T07:30:15;2.90;99.20
6666;DHT22;3369;49.906;8.598;2024-03-08T07:32:59;3.00;99.10
6666;DHT22;3369;49.906;8.598;2024-03-08T07:35:25;3.00;98.90
6666;DHT22;3369;49.906;8.598;2024-03-08T07:37:51;3.10;98.90
6666;DHT22;3369;49.906;8.598;2024-03-08T07:40:18;3.20;98.80
6666;DHT22;3369;49.906;8.598;2024-03-08T07:42:43;3.30;98.70
6666;DHT22;3369;49.906;8.598;2024-03-08T07:45:09;3.30;98.80
6666;DHT22;3369;49.906;8.598;2024-03-08T07:47:35;3.40;99.00
6666;DHT22;3369;49.906;8.598;2024-03-08T07:50:02;3.50;98.50
6666;DHT22;3369;49.906;8.598;2024-03-08T07:52:27;3.60;98.40
6666;DHT22;3369;49.906;8.598;2024-03-08T07:54:53;3.70;98.20
6666;DHT22;3369;49.906;8.598;2024-03-08T07:57:20;3.80;98.10
6666;DHT22;3369;49.906;8.598;2024-03-08T07:59:45;3.90;98.20
6666;DHT22;3369;49.906;8.598;2024-03-08T08:02:11;4.00;98.20
6666;DHT22;3369;49.906;8.598;2024-03-08T08:04:36;4.20;98.00
6666;DHT22;3369;49.906;8.598;2024-03-08T08:07:04;4.30;98.00
6666;DHT22;3369;49.906;8.598;2024-03-08T08:09:29;4.40;97.80
6666;DHT22;3369;49.906;8.598;2024-03-08T08:12:00;4.50;97.80
6666;DHT22;3369;49.906;8.598;2024-03-08T08:14:27;4.60;97.80
6666;DHT22;3369;49.906;8.598;2024-03-08T08:16:54;4.80;97.90
6666;DHT22;3369;49.906;8.598;2024-03-08T08:19:22;5.00;97.80
6666;DHT22;3369;49.906;8.598;2024-03-08T08:21:48;5.20;97.70
6666;DHT22;3369;49.906;8.598;2024-03-08T08:24:14;5.40;97.60
6666;DHT22;3369;49.906;8.598;2024-03-08T08:26:40;5.60;96.30
6666;DHT22;3369;49.906;8.598;2024-03-08T08:29:06;5.70;96.20
6666;DHT22;3369;49.906;8.598;2024-03-08T08:31:32;5.90;96.10
6666;DHT22;3369;49.906;8.598;2024-03-08T08:33:58;6.10;95.70
6666;DHT22;3369;49.906;8.598;2024-03-08T08:36:25;6.20;95.80
6666;DHT22;3369;49.906;8.598;2024-03-08T08:38:51;6.30;95.90
6666;DHT22;3369;49.906;8.598;2024-03-08T08:41:19;6.50;95.30
6666;DHT22;3369;49.906;8.598;2024-03-08T08:43:46;6.60;94.90
6666;DHT22;3369;49.906;8.598;2024-03-08T08:46:12;6.70;95.10
6666;DHT22;3369;49.906;8.598;2024-03-08T08:48:39;6.80;94.80
6666;DHT22;3369;49.906;8.598;2024-03-08T08:51:09;6.90;95.10
6666;DHT22;3369;49.906;8.598;2024-03-08T08:53:41;7.00;95.30
6666;DHT22;3369;49.906;8.598;2024-03-08T08:56:08;7.20;94.40
6666;DHT22;3369;49.906;8.598;2024-03-08T08:58:34;7.30;94.30
6666;DHT22;3369;49.906;8.598;2024-03-08T09:01:00;7.40;94.00
6666;DHT22;3369;49.906;8.598;2024-03-08T09:03:27;7.40;94.10
6666;DHT22;3369;49.906;8.598;2024-03-08T09:05:53;7.50;93.90
6666;DHT22;3369;49.906;8.598;2024-03-08T09:08:19;7.60;94.00
6666;DHT22;3369;49.906;8.598;2024-03-08T09:10:45;7.70;93.50
6666;DHT22;3369;49.906;8.598;2024-03-08T09:13:12;7.80;92.90
6666;DHT22;3369;49.906;8.598;2024-03-08T09:15:38;7.80;93.30
6666;DHT22;3369;49.906;8.598;2024-03-08T09:18:06;7.80;93.00
6666;DHT22;3369;49.906;8.598;2024-03-08T09:20:31;7.90;93.10
6666;DHT22;3369;49.906;8.598;2024-03-08T09:22:57;8.00;93.20
6666;DHT22;3369;49.906;8.598;2024-03-08T09:25:23;8.10;92.80
6666;DHT22;3369;49.906;8.598;2024-03-08T09:27:49;8.20;92.10
6666;DHT22;3369;49.906;8.598;2024-03-08T09:30:15;8.20;92.20
6666;DHT22;3369;49.906;8.598;2024-03-08T09:32:41;8.20;92.10
6666;DHT22;3369;49.906;8.598;2024-03-08T09:35:07;8.20;92.20
6666;DHT22;3369;49.906;8.598;2024-03-08T09:37:33;8.30;92.10
6666;DHT22;3369;49.906;8.598;2024-03-08T09:39:59;8.30;92.10
6666;DHT22;3369;49.906;8.598;2024-03-08T09:42:26;8.40;91.70
6666;DHT22;3369;49.906;8.598;2024-03-08T09:44:52;8.40;91.60
6666;DHT22;3369;49.906;8.598;2024-03-08T09:47:18;8.50;91.50
6666;DHT22;3369;49.906;8.598;2024-03-08T09:49:43;8.50;91.80
6666;DHT22;3369;49.906;8.598;2024-03-08T09:52:09;8.60;91.80
6666;DHT22;3369;49.906;8.598;2024-03-08T09:54:36;8.60;91.60
6666;DHT22;3369;49.906;8.598;2024-03-08T09:57:04;8.70;91.60
6666;DHT22;3369;49.906;8.598;2024-03-08T09:59:30;8.80;91.80
6666;DHT22;3369;49.906;8.598;2024-03-08T10:02:01;8.90;92.10
6666;DHT22;3369;49.906;8.598;2024-03-08T10:04:28;9.00;91.60
6666;DHT22;3369;49.906;8.598;2024-03-08T10:07:00;9.20;92.00
6666;DHT22;3369;49.906;8.598;2024-03-08T10:09:26;9.30;91.60
6666;DHT22;3369;49.906;8.598;2024-03-08T10:12:02;9.40;90.90
6666;DHT22;3369;49.906;8.598;2024-03-08T10:14:28;9.40;90.80
6666;DHT22;3369;49.906;8.598;2024-03-08T10:16:54;9.50;90.90
6666;DHT22;3369;49.906;8.598;2024-03-08T10:19:20;9.50;90.80
6666;DHT22;3369;49.906;8.598;2024-03-08T10:21:52;9.60;90.20
6666;DHT22;3369;49.906;8.598;2024-03-08T10:24:24;9.60;90.30
6666;DHT22;3369;49.906;8.598;2024-03-08T10:27:01;9.60;90.60
6666;DHT22;3369;49.906;8.598;2024-03-08T10:29:31;9.60;90.30
6666;DHT22;3369;49.906;8.598;2024-03-08T10:31:56;9.60;90.20
6666;DHT22;3369;49.906;8.598;2024-03-08T10:34:23;9.70;90.20
6666;DHT22;3369;49.906;8.598;2024-03-08T10:36:52;9.70;90.60
6666;DHT22;3369;49.906;8.598;2024-03-08T10:39:24;9.80;90.10
6666;DHT22;3369;49.906;8.598;2024-03-08T10:41:57;9.90;90.20
6666;DHT22;3369;49.906;8.598;2024-03-08T10:47:21;9.80;89.80
6666;DHT22;3369;49.906;8.598;2024-03-08T10:50:11;9.80;90.10
6666;DHT22;3369;49.906;8.598;2024-03-08T10:52:42;9.80;90.30
6666;DHT22;3369;49.906;8.598;2024-03-08T10:55:10;9.90;90.20
6666;DHT22;3369;49.906;8.598;2024-03-08T10:57:38;10.00;88.80
6666;DHT22;3369;49.906;8.598;2024-03-08T11:00:07;10.00;89.20
6666;DHT22;3369;49.906;8.598;2024-03-08T11:02:36;10.00;89.00
6666;DHT22;3369;49.906;8.598;2024-03-08T11:05:03;10.00;90.00
6666;DHT22;3369;49.906;8.598;2024-03-08T11:07:34;10.20;89.80
6666;DHT22;3369;49.906;8.598;2024-03-08T11:10:03;10.30;88.20
6666;DHT22;3369;49.906;8.598;2024-03-08T11:12:37;10.40;88.60
6666;DHT22;3369;49.906;8.598;2024-03-08T11:15:12;10.40;88.00
6666;DHT22;3369;49.906;8.598;2024-03-08T11:20:24;10.40;89.00
6666;DHT22;3369;49.906;8.598;2024-03-08T11:22:55;10.50;88.60
6666;DHT22;3369;49.906;8.598;2024-03-08T11:25:32;10.50;88.10
6666;DHT22;3369;49.906;8.598;2024-03-08T11:33:25;10.40;88.40
6666;DHT22;3369;49.906;8.598;2024-03-08T11:35:52;10.40;88.40
6666;DHT22;3369;49.906;8.598;2024-03-08T11:38:17;10.40;88.20
6666;DHT22;3369;49.906;8.598;2024-03-08T11:40:46;10.40;88.20
6666;DHT22;3369;49.906;8.598;2024-03-08T11:43:16;10.40;88.70
6666;DHT22;3369;49.906;8.598;2024-03-08T11:45:41;10.50;88.30
6666;DHT22;3369;49.906;8.598;2024-03-08T11:48:07;10.60;88.10
6666;DHT22;3369;49.906;8.598;2024-03-08T11:50:33;10.70;88.00
6666;DHT22;3369;49.906;8.598;2024-03-08T11:53:03;10.70;88.50
6666;DHT22;3369;49.906;8.598;2024-03-08T11:55:32;10.90;87.00
6666;DHT22;3369;49.906;8.598;2024-03-08T11:58:04;10.90;88.00
6666;DHT22;3369;49.906;8.598;2024-03-08T12:00:31;11.00;88.30
6666;DHT22;3369;49.906;8.598;2024-03-08T12:03:07;11.10;87.40
6666;DHT22;3369;49.906;8.598;2024-03-08T12:05:35;11.20;87.80
6666;DHT22;3369;49.906;8.598;2024-03-08T12:08:04;11.30;85.50
6666;DHT22;3369;49.906;8.598;2024-03-08T12:10:33;11.20;84.80
6666;DHT22;3369;49.906;8.598;2024-03-08T12:13:00;11.20;84.90
6666;DHT22;3369;49.906;8.598;2024-03-08T12:15:26;11.10;84.70
6666;DHT22;3369;49.906;8.598;2024-03-08T12:17:54;11.10;84.90
6666;DHT22;3369;49.906;8.598;2024-03-08T12:20:22;11.00;85.50
6666;DHT22;3369;49.906;8.598;2024-03-08T12:22:49;11.10;85.10
6666;DHT22;3369;49.906;8.598;2024-03-08T12:25:15;11.00;84.20
6666;DHT22;3369;49.906;8.598;2024-03-08T12:27:42;11.00;85.20
6666;DHT22;3369;49.906;8.598;2024-03-08T12:30:27;11.00;85.00
6666;DHT22;3369;49.906;8.598;2024-03-08T12:33:00;11.00;85.10
6666;DHT22;3369;49.906;8.598;2024-03-08T12:35:30;11.10;84.00
6666;DHT22;3369;49.906;8.598;2024-03-08T12:37:58;11.00;84.90
6666;DHT22;3369;49.906;8.598;2024-03-08T12:40:31;10.90;85.80
6666;DHT22;3369;49.906;8.598;2024-03-08T12:43:06;11.00;84.70
6666;DHT22;3369;49.906;8.598;2024-03-08T12:45:31;11.00;84.90
6666;DHT22;3369;49.906;8.598;2024-03-08T12:47:58;11.00;85.30
6666;DHT22;3369;49.906;8.598;2024-03-08T12:50:24;11.00;85.60
6666;DHT22;3369;49.906;8.598;2024-03-08T12:52:50;11.10;85.70
6666;DHT22;3369;49.906;8.598;2024-03-08T12:55:18;11.20;85.30
6666;DHT22;3369;49.906;8.598;2024-03-08T12:57:44;11.20;85.30
6666;DHT22;3369;49.906;8.598;2024-03-08T13:00:11;11.30;85.30
6666;DHT22;3369;49.906;8.598;2024-03-08T13:02:47;11.30;85.40
6666;DHT22;3369;49.906;8.598;2024-03-08T13:05:13;11.30;85.80
6666;DHT22;3369;49.906;8.598;2024-03-08T13:07:43;11.30;86.10
6666;DHT22;3369;49.906;8.598;2024-03-08T13:10:14;11.40;85.90
6666;DHT22;3369;49.906;8.598;2024-03-08T13:12:43;11.50;85.80
6666;DHT22;3369;49.906;8.598;2024-03-08T13:15:09;11.50;85.20
6666;DHT22;3369;49.906;8.598;2024-03-08T13:17:40;11.60;84.70
6666;DHT22;3369;49.906;8.598;2024-03-08T13:20:07;11.60;84.70
6666;DHT22;3369;49.906;8.598;2024-03-08T13:22:33;11.60;84.00
6666;DHT22;3369;49.906;8.598;2024-03-08T13:24:58;11.60;85.30
6666;DHT22;3369;49.906;8.598;2024-03-08T13:27:29;11.70;84.60
6666;DHT22;3369;49.906;8.598;2024-03-08T13:29:55;11.70;83.30
6666;DHT22;3369;49.906;8.598;2024-03-08T13:32:20;11.60;83.90
6666;DHT22;3369;49.906;8.598;2024-03-08T13:34:47;11.70;83.90
6666;DHT22;3369;49.906;8.598;2024-03-08T13:37:13;11.60;84.20
6666;DHT22;3369;49.906;8.598;2024-03-08T13:39:41;11.70;83.70
6666;DHT22;3369;49.906;8.598;2024-03-08T13:42:12;11.60;85.00
6666;DHT22;3369;49.906;8.598;2024-03-08T13:44:48;11.60;84.60
6666;DHT22;3369;49.906;8.598;2024-03-08T13:47:18;11.70;83.80
6666;DHT22;3369;49.906;8.598;2024-03-08T13:49:44;11.60;84.00
6666;DHT22;3369;49.906;8.598;2024-03-08T13:52:10;11.60;83.90
6666;DHT22;3369;49.906;8.598;2024-03-08T13:54:37;11.60;83.00
6666;DHT22;3369;49.906;8.598;2024-03-08T13:57:04;11.60;83.90
6666;DHT22;3369;49.906;8.598;2024-03-08T13:59:30;11.60;84.50
6666;DHT22;3369;49.906;8.598;2024-03-08T14:02:04;11.60;84.00
6666;DHT22;3369;49.906;8.598;2024-03-08T14:04:30;11.70;84.00
6666;DHT22;3369;49.906;8.598;2024-03-08T14:06:55;11.60;83.30
6666;DHT22;3369;49.906;8.598;2024-03-08T14:09:29;11.70;84.30
6666;DHT22;3369;49.906;8.598;2024-03-08T14:11:56;11.70;84.30
6666;DHT22;3369;49.906;8.598;2024-03-08T14:14:22;11.70;84.50
6666;DHT22;3369;49.906;8.598;2024-03-08T14:16:50;11.80;84.40
6666;DHT22;3369;49.906;8.598;2024-03-08T14:19:20;11.80;84.80
6666;DHT22;3369;49.906;8.598;2024-03-08T14:21:47;12.00;84.10
6666;DHT22;3369;49.906;8.598;2024-03-08T14:24:17;12.00;83.80
6666;DHT22;3369;49.906;8.598;2024-03-08T14:26:44;11.90;83.80
6666;DHT22;3369;49.906;8.598;2024-03-08T14:29:10;11.90;83.60
6666;DHT22;3369;49.906;8.598;2024-03-08T14:31:37;11.90;83.40
6666;DHT22;3369;49.906;8.598;2024-03-08T14:34:02;11.90;83.40
6666;DHT22;3369;49.906;8.598;2024-03-08T14:36:29;11.80;84.20
6666;DHT22;3369;49.906;8.598;2024-03-08T14:38:55;11.70;84.70
6666;DHT22;3369;49.906;8.598;2024-03-08T14:41:21;11.70;83.90
6666;DHT22;3369;49.906;8.598;2024-03-08T14:43:47;11.70;84.30
6666;DHT22;3369;49.906;8.598;2024-03-08T14:46:16;11.70;84.40
6666;DHT22;3369;49.906;8.598;2024-03-08T14:48:48;11.80;83.80
6666;DHT22;3369;49.906;8.598;2024-03-08T14:51:13;11.70;83.70
6666;DHT22;3369;49.906;8.598;2024-03-08T14:53:42;11.70;84.20
6666;DHT22;3369;49.906;8.598;2024-03-08T14:56:10;11.70;84.60
6666;DHT22;3369;49.906;8.598;2024-03-08T14:58:42;11.70;83.60
6666;DHT22;3369;49.906;8.598;2024-03-08T15:01:10;11.70;83.60
6666;DHT22;3369;49.906;8.598;2024-03-08T15:03:36;11.60;83.90
6666;DHT22;3369;49.906;8.598;2024-03-08T15:06:03;11.60;83.90
6666;DHT22;3369;49.906;8.598;2024-03-08T15:08:34;11.60;84.10
6666;DHT22;3369;49.906;8.598;2024-03-08T15:10:59;11.60;84.30
6666;DHT22;3369;49.906;8.598;2024-03-08T15:13:25;11.60;84.60
6666;DHT22;3369;49.906;8.598;2024-03-08T15:16:00;11.70;84.40
6666;DHT22;3369;49.906;8.598;2024-03-08T15:18:26;11.60;84.50
6666;DHT22;3369;49.906;8.598;2024-03-08T15:20:56;11.70;83.70
6666;DHT22;3369;49.906;8.598;2024-03-08T15:23:21;11.70;83.40
6666;DHT22;3369;49.906;8.598;2024-03-08T15:25:48;11.70;83.60
6666;DHT22;3369;49.906;8.598;2024-03-08T15:28:15;11.70;83.60
6666;DHT22;3369;49.906;8.598;2024-03-08T15:30:44;11.70;83.20
6666;DHT22;3369;49.906;8.598;2024-03-08T15:33:12;11.70;83.20
6666;DHT22;3369;49.906;8.598;2024-03-08T15:35:41;11.70;83.70
6666;DHT22;3369;49.906;8.598;2024-03-08T15:38:06;11.70;83.50
6666;DHT22;3369;49.906;8.598;2024-03-08T15:40:32;11.60;83.10
6666;DHT22;3369;49.906;8.598;2024-03-08T15:43:00;11.70;83.20
6666;DHT22;3369;49.906;8.598;2024-03-08T15:45:26;11.60;82.80
6666;DHT22;3369;49.906;8.598;2024-03-08T15:47:55;11.70;83.00
6666;DHT22;3369;49.906;8.598;2024-03-08T15:50:21;11.70;83.10
6666;DHT22;3369;49.906;8.598;2024-03-08T15:52:49;11.70;81.80
6666;DHT22;3369;49.906;8.598;2024-03-08T15:55:16;11.70;81.40
6666;DHT22;3369;49.906;8.598;2024-03-08T15:57:52;11.70;81.50
6666;DHT22;3369;49.906;8.598;2024-03-08T16:00:21;11.70;80.90
6666;DHT22;3369;49.906;8.598;2024-03-08T16:03:00;11.70;81.20
6666;DHT22;3369;49.906;8.598;2024-03-08T16:05:32;11.60;81.00
6666;DHT22;3369;49.906;8.598;2024-03-08T16:07:58;11.60;81.40
6666;DHT22;3369;49.906;8.598;2024-03-08T16:10:24;11.60;81.50
6666;DHT22;3369;49.906;8.598;2024-03-08T16:12:51;11.70;80.40
6666;DHT22;3369;49.906;8.598;2024-03-08T16:15:17;11.60;80.80
6666;DHT22;3369;49.906;8.598;2024-03-08T16:17:46;11.70;80.70
6666;DHT22;3369;49.906;8.598;2024-03-08T16:20:13;11.60;81.00
6666;DHT22;3369;49.906;8.598;2024-03-08T16:22:42;11.50;81.10